Friday, December 19, 2014
02:15 UTC
  |  Log In   |  Register Free
Airport Search:

Madison Airport
(KI39)

Madison Airport Diagram
No Airport Diagram Available

FAA data valid effective November 13, 2014 - January 08, 2015 (unless otherwise noted).

 
 
 
 
 
 
 
 
 
 
 
 
 
 

Current Aviation Weather for Madison Airport (KI39)

The most recent METAR observation for KI39 was updated at: 2113
METAR Summary (Translated METAR)
KI39
182055Z AUTO 00000KT 10SM OVC070 00/M04 A3018 RMK AO2
KDVK
182055Z AUTO 00000KT 10SM SCT017 OVC055 00/M03 A3020 RMK AO2
(21 nm SW from KI39)
KLEX
182054Z 34003KT 8SM BKN018 OVC085 M01/M04 A3020 RMK AO2 SLP234 T10061044 55007
(27.6 nm NW from KI39)
TAF Summary (Translated TAF)
KLEX
(28.6 nm NE from KDVK)
181725Z 1818/1918 VRB04KT P6SM FEW020 BKN060 FM191000 VRB04KT P6SM SCT060
  Airport Weather Conditions for KI39

 Current Weather at I39
32° F
Overcast
North winds at 0.0 mph
I39 NOAA Radar

Pressure: 30.20 in
Humidity: 75%
Wind: Calm
Dew Point: 24.8°F
Visibility: 10.00 mi


Airport Weather Forecast for KI39

Translated METAR and TAF for KDVK
Translated METAR for KDVK (0215 UTC 19 December 2014)
found at http://aviationweather.gov/adds/metars/
 
METAR text: KDVK 190155Z AUTO 36003KT 10SM OVC065 00/M03 A3022 RMK AO2
Conditions at: KDVK (DANVILLE , KY, US) observed 0155 UTC 19 December 2014
Temperature: 0.0°C (32°F)
Dewpoint: -3.0°C (27°F) [RH = 80%]
Pressure (altimeter): 30.22 inches Hg (1023.5 mb)
Winds: from the N (360 degrees) at 3 MPH (3 knots; 1.6 m/s)
Visibility: 10 or more miles (16+ km)
Ceiling: 6500 feet AGL
Clouds: overcast cloud deck at 6500 feet AGL
Weather: automated observation with no human augmentation;
there may or may not be significant weather present at this time
Translated TAF for KDVK

There is no translated TAF available for this airport

Find All Airport Services Find A Hotel Find A Rental Car Find A Golf Course Find A Restaurant $100 Hamburger



FBO's on the Field
FBO Company Facility Photos Services Transportation Aviation Fuel Prices: Prices include tax
Catering Weather Repair Courtesy Rental Type 100LL JetA JetA+ MOGAS 8087
 
Eastern Kentucky University

This FBO has not yet been rated
FS:Shell
Last Updated: Nov-20
Login to update fuel prices
SS:
Contact Eastern Kentucky UniversityMore FBO Information
 
Add another FBO Facility Photos Catering Weather Repair Courtesy Rental Type 100LL JetA JetA+ MOGAS 8087
Services Transportation Aviation Fuel Prices: Prices include tax


model-print
model-print
model-print
model-print